createdAt,value
2023-06-10T00:13:56.763Z,100
2023-06-10T00:28:52.909Z,100
2023-06-10T00:43:49.057Z,100
2023-06-10T00:58:45.203Z,100
2023-06-10T01:13:41.477Z,100
2023-06-10T01:28:37.110Z,100
2023-06-10T01:43:33.251Z,100
2023-06-10T01:58:29.143Z,100
2023-06-10T02:13:25.236Z,100
2023-06-10T02:28:21.368Z,100
2023-06-10T02:43:17.706Z,100
2023-06-10T02:58:13.814Z,100
2023-06-10T03:13:09.596Z,100
2023-06-10T03:28:05.653Z,100
2023-06-10T03:43:01.420Z,100
2023-06-10T03:57:57.522Z,100
2023-06-10T04:12:53.625Z,100
2023-06-10T04:27:50.069Z,100
2023-06-10T04:42:46.985Z,100
2023-06-10T04:57:43.680Z,100
2023-06-10T05:12:40.091Z,100
2023-06-10T05:27:36.490Z,100
2023-06-10T05:42:32.723Z,100
2023-06-10T05:57:29.186Z,100
2023-06-10T06:12:25.787Z,100
2023-06-10T06:27:22.418Z,100
2023-06-10T06:42:18.573Z,100
2023-06-10T06:57:15.250Z,100
2023-06-10T07:12:11.396Z,93.65
2023-06-10T07:27:08.174Z,76.44
2023-06-10T07:42:04.892Z,69.75
2023-06-10T07:57:01.097Z,64.07
2023-06-10T08:11:58.197Z,65.41
2023-06-10T08:26:55.233Z,63.68
2023-06-10T08:41:52.427Z,59.85
2023-06-10T08:56:49.473Z,61.42
2023-06-10T09:11:46.285Z,58.91
2023-06-10T09:26:42.995Z,64.06
2023-06-10T09:41:39.547Z,55.96
2023-06-10T09:56:36.098Z,53.36
2023-06-10T10:11:32.843Z,47.53
2023-06-10T10:26:29.779Z,46.71
2023-06-10T10:41:26.073Z,33.74
2023-06-10T10:56:22.804Z,34.57
2023-06-10T11:11:18.849Z,36.61
2023-06-10T11:26:14.695Z,36.36
2023-06-10T11:41:11.304Z,34.28
2023-06-10T11:56:06.960Z,30.8
2023-06-10T12:11:03.181Z,28.22
2023-06-10T12:26:00.251Z,30.97
2023-06-10T12:40:56.509Z,30.96
2023-06-10T12:55:52.757Z,33.47
2023-06-10T13:10:49.091Z,29.55
2023-06-10T13:25:45.111Z,28.33
2023-06-10T13:40:41.880Z,28.4
2023-06-10T13:55:37.671Z,28.24
2023-06-10T14:10:33.824Z,26.81
2023-06-10T14:25:30.713Z,28.16
2023-06-10T14:40:25.421Z,28.31
2023-06-10T14:55:21.466Z,27.55
2023-06-10T15:10:17.217Z,29.69
2023-06-10T15:40:09.451Z,28.48
2023-06-10T15:55:05.723Z,27.87
2023-06-10T16:10:02.441Z,28.55
2023-06-10T16:24:59.436Z,27.44
2023-06-10T16:39:56.250Z,28.28
2023-06-10T16:54:52.625Z,30.28
2023-06-10T17:09:48.980Z,28.69
2023-06-10T17:24:45.726Z,28.53
2023-06-10T17:39:42.763Z,29
2023-06-10T17:54:38.595Z,29.94
2023-06-10T18:09:33.404Z,32.18
2023-06-10T18:24:28.270Z,36.69
2023-06-10T18:39:23.670Z,38.81
2023-06-10T18:54:19.827Z,42.55
2023-06-10T19:09:14.909Z,53.99
2023-06-10T19:24:10.838Z,76.56
2023-06-10T19:39:06.738Z,94.33
2023-06-10T19:54:02.398Z,95.35
2023-06-10T20:08:58.382Z,100
2023-06-10T20:23:54.583Z,100
2023-06-10T20:38:50.116Z,100
2023-06-10T20:53:46.402Z,100
2023-06-10T21:08:42.116Z,100
2023-06-10T21:23:38.203Z,100
2023-06-10T21:38:34.308Z,100
2023-06-10T21:53:30.264Z,100
2023-06-10T22:08:26.324Z,100
2023-06-10T22:23:22.478Z,100
2023-06-10T22:38:18.513Z,100
2023-06-10T22:53:14.943Z,100
2023-06-10T23:08:10.642Z,100
2023-06-10T23:23:06.767Z,100
2023-06-10T23:38:03.070Z,100
2023-06-10T23:52:59.517Z,100
